createdAt,value
2019-03-29T00:02:09.368Z,71.68
2019-03-29T00:04:38.917Z,71.68
2019-03-29T00:07:08.523Z,71.07
2019-03-29T00:09:38.382Z,70.64
2019-03-29T00:12:08.147Z,70.30
2019-03-29T00:14:37.682Z,70.65
2019-03-29T00:17:07.257Z,70.68
2019-03-29T00:19:36.822Z,70.53
2019-03-29T00:22:06.469Z,70.28
2019-03-29T00:24:36.284Z,70.70
2019-03-29T00:27:05.823Z,71.16
2019-03-29T00:29:35.502Z,72.10
2019-03-29T00:32:05.985Z,71.40
2019-03-29T00:34:38.566Z,71.26
2019-03-29T00:37:08.319Z,72.76
2019-03-29T00:39:38.658Z,74.05
2019-03-29T00:42:08.545Z,73.49
2019-03-29T00:44:38.223Z,73.66
2019-03-29T00:47:07.859Z,73.35
2019-03-29T00:49:37.469Z,72.58
2019-03-29T00:52:07.130Z,72.21
2019-03-29T00:54:36.926Z,72.14
2019-03-29T00:57:06.624Z,71.89
2019-03-29T00:59:36.274Z,72.09
2019-03-29T01:02:06.128Z,71.70
2019-03-29T01:04:35.737Z,71.09
2019-03-29T01:07:05.564Z,70.59
2019-03-29T01:09:35.252Z,70.18
2019-03-29T01:12:04.912Z,69.96
2019-03-29T01:14:34.483Z,70.30
2019-03-29T01:17:04.111Z,71.08
2019-03-29T01:19:34.007Z,72.34
2019-03-29T01:22:03.646Z,72.49
2019-03-29T01:24:33.662Z,72.14
2019-03-29T01:27:03.252Z,71.96
2019-03-29T01:29:32.877Z,71.43
2019-03-29T01:32:03.733Z,72.15
2019-03-29T01:34:33.272Z,73.10
2019-03-29T01:37:06.110Z,73.56
2019-03-29T01:39:35.699Z,73.63
2019-03-29T01:42:05.368Z,74.15
2019-03-29T01:44:35.435Z,74.87
2019-03-29T01:47:05.667Z,74.53
2019-03-29T01:49:35.452Z,74.01
2019-03-29T01:52:05.190Z,74.73
2019-03-29T01:54:34.890Z,74.27
2019-03-29T01:57:04.548Z,74.77
2019-03-29T01:59:34.111Z,74.45
2019-03-29T02:02:03.630Z,73.80
2019-03-29T02:04:34.981Z,73.89
2019-03-29T02:07:05.389Z,75.11
2019-03-29T02:09:35.102Z,74.82
2019-03-29T02:12:05.225Z,74.20
2019-03-29T02:14:36.567Z,74.46
2019-03-29T02:17:06.238Z,73.86
2019-03-29T02:19:35.963Z,75.00
2019-03-29T02:22:06.254Z,74.76
2019-03-29T02:24:35.812Z,75.76
2019-03-29T02:27:05.486Z,75.96
2019-03-29T02:29:35.103Z,76.06
2019-03-29T02:32:04.892Z,75.61
2019-03-29T02:34:34.558Z,75.88
2019-03-29T02:37:04.331Z,75.17
2019-03-29T02:39:34.413Z,75.20
2019-03-29T02:42:24.446Z,75.94
2019-03-29T02:44:53.980Z,76.69
2019-03-29T02:47:25.239Z,76.57
2019-03-29T02:49:54.876Z,76.77
2019-03-29T02:52:24.414Z,76.79
2019-03-29T02:54:54.061Z,76.23
2019-03-29T02:57:23.870Z,75.85
2019-03-29T02:59:53.761Z,76.12
2019-03-29T03:02:26.253Z,76.23
2019-03-29T03:04:56.036Z,75.89
2019-03-29T03:07:25.928Z,75.59
2019-03-29T03:09:55.661Z,76.10
2019-03-29T03:12:25.464Z,76.04
2019-03-29T03:14:55.063Z,76.16
2019-03-29T03:17:24.934Z,76.96
2019-03-29T03:19:54.721Z,75.98
2019-03-29T03:22:24.388Z,76.59
2019-03-29T03:24:54.075Z,76.80
2019-03-29T03:27:24.095Z,76.53
2019-03-29T03:29:53.828Z,76.74
2019-03-29T03:32:23.579Z,76.77
2019-03-29T03:34:54.957Z,76.44
2019-03-29T03:37:24.629Z,76.62
2019-03-29T03:39:54.176Z,76.57
2019-03-29T03:42:23.842Z,75.96
2019-03-29T03:44:53.458Z,76.03
2019-03-29T03:47:23.164Z,75.91
2019-03-29T03:49:53.417Z,75.95
2019-03-29T03:52:23.447Z,76.75
2019-03-29T03:54:53.202Z,77.18
2019-03-29T03:57:24.368Z,77.27
2019-03-29T03:59:56.083Z,76.72
2019-03-29T04:02:26.062Z,76.75
2019-03-29T04:04:55.871Z,76.93
2019-03-29T04:07:25.504Z,76.39
2019-03-29T04:09:55.701Z,77.16
2019-03-29T04:12:25.305Z,76.53
2019-03-29T04:14:54.967Z,76.52
2019-03-29T04:17:24.535Z,76.39
2019-03-29T04:19:54.142Z,75.32
2019-03-29T04:22:23.731Z,74.91
2019-03-29T04:24:53.271Z,75.33
2019-03-29T04:27:24.527Z,75.26
2019-03-29T04:29:54.153Z,75.08
2019-03-29T04:32:23.959Z,75.72
2019-03-29T04:34:53.668Z,75.93
2019-03-29T04:37:23.278Z,75.66
2019-03-29T04:40:06.210Z,75.35
2019-03-29T04:42:24.165Z,74.97
2019-03-29T04:44:54.373Z,75.54
2019-03-29T04:47:23.923Z,76.24
2019-03-29T04:49:53.537Z,77.30
2019-03-29T04:52:23.064Z,76.89
2019-03-29T04:54:52.772Z,76.24
2019-03-29T04:57:22.372Z,76.16
2019-03-29T04:59:52.276Z,75.74
2019-03-29T05:02:22.200Z,75.28
2019-03-29T05:04:51.918Z,75.12
2019-03-29T05:07:21.524Z,74.61
2019-03-29T05:09:51.077Z,74.84
2019-03-29T05:12:20.949Z,75.41
2019-03-29T05:14:50.634Z,76.10
2019-03-29T05:17:21.292Z,75.52
2019-03-29T05:19:50.876Z,75.12
2019-03-29T05:22:20.478Z,74.52
2019-03-29T05:24:50.629Z,75.24
2019-03-29T05:27:20.171Z,75.10
2019-03-29T05:29:50.160Z,73.78
2019-03-29T05:32:19.851Z,73.31
2019-03-29T05:34:51.107Z,74.62
2019-03-29T05:37:20.882Z,74.99
2019-03-29T05:39:50.479Z,74.76
2019-03-29T05:42:20.109Z,73.77
2019-03-29T05:44:49.683Z,73.72
2019-03-29T05:47:20.015Z,72.85
2019-03-29T05:49:49.694Z,72.05
2019-03-29T05:52:19.315Z,71.62
2019-03-29T05:54:48.996Z,71.15
2019-03-29T05:57:18.692Z,70.06
2019-03-29T05:59:48.306Z,70.39
2019-03-29T06:02:17.835Z,70.67
2019-03-29T06:04:47.550Z,69.96
2019-03-29T06:07:17.405Z,69.53
2019-03-29T06:09:48.572Z,69.56
2019-03-29T06:12:18.236Z,70.98
2019-03-29T06:14:47.847Z,70.72
2019-03-29T06:17:18.577Z,70.62
2019-03-29T06:19:48.418Z,70.57
2019-03-29T06:22:18.174Z,70.11
2019-03-29T06:24:47.703Z,69.41
2019-03-29T06:27:17.359Z,68.58
2019-03-29T06:29:46.912Z,68.05
2019-03-29T06:32:16.517Z,67.71
2019-03-29T06:34:46.127Z,67.31
2019-03-29T06:37:18.294Z,67.21
2019-03-29T06:39:49.375Z,67.10
2019-03-29T06:42:19.253Z,68.67
2019-03-29T06:44:48.983Z,68.37
2019-03-29T06:47:18.603Z,68.41
2019-03-29T06:49:48.253Z,68.07
2019-03-29T06:52:17.877Z,67.20
2019-03-29T06:54:47.590Z,67.42
2019-03-29T06:57:17.233Z,67.60
2019-03-29T06:59:46.813Z,67.35
2019-03-29T07:02:16.409Z,65.75
2019-03-29T07:04:46.175Z,66.32
2019-03-29T07:07:15.748Z,67.06
2019-03-29T07:09:45.311Z,67.10
2019-03-29T07:12:14.932Z,66.98
2019-03-29T07:14:44.563Z,66.81
2019-03-29T07:17:14.155Z,65.84
2019-03-29T07:19:43.715Z,63.29
2019-03-29T07:22:13.413Z,57.97
2019-03-29T07:24:42.973Z,53.35
2019-03-29T07:27:13.928Z,49.71
2019-03-29T07:29:43.463Z,47.46
2019-03-29T07:32:13.048Z,46.54
2019-03-29T07:34:42.968Z,44.41
2019-03-29T07:37:12.655Z,42.24
2019-03-29T07:39:42.385Z,40.98
2019-03-29T07:42:11.984Z,40.42
2019-03-29T07:44:41.586Z,41.76
2019-03-29T07:47:11.335Z,40.79
2019-03-29T07:49:41.574Z,38.73
2019-03-29T07:52:11.210Z,36.75
2019-03-29T07:54:41.001Z,36.34
2019-03-29T07:57:11.308Z,36.20
2019-03-29T07:59:41.015Z,34.19
2019-03-29T08:02:10.541Z,32.91
2019-03-29T08:04:40.205Z,31.35
2019-03-29T08:07:09.880Z,31.59
2019-03-29T08:09:39.587Z,32.73
2019-03-29T08:12:09.347Z,32.58
2019-03-29T08:14:39.108Z,32.25
2019-03-29T08:17:08.750Z,31.61
2019-03-29T08:19:38.341Z,33.29
2019-03-29T08:22:08.137Z,37.11
2019-03-29T08:24:37.808Z,34.59
2019-03-29T08:27:07.453Z,30.96
2019-03-29T08:29:37.186Z,32.14
2019-03-29T08:32:06.949Z,30.61
2019-03-29T08:34:38.586Z,30.28
2019-03-29T08:37:08.324Z,30.01
2019-03-29T08:39:37.994Z,28.65
2019-03-29T08:42:07.578Z,27.37
2019-03-29T08:44:37.100Z,26.26
2019-03-29T08:47:06.644Z,25.01
2019-03-29T08:49:36.429Z,24.57
2019-03-29T08:52:06.661Z,24.76
2019-03-29T08:54:39.620Z,27.37
2019-03-29T08:57:10.721Z,28.46
2019-03-29T08:59:40.861Z,31.92
2019-03-29T09:02:10.633Z,33.55
2019-03-29T09:04:40.418Z,36.09
2019-03-29T09:07:10.015Z,39.13
2019-03-29T09:09:39.779Z,39.91
2019-03-29T09:12:14.655Z,39.50
2019-03-29T09:14:41.193Z,40.74
2019-03-29T09:17:10.803Z,42.19
2019-03-29T09:19:40.757Z,43.15
2019-03-29T09:22:12.230Z,42.88
2019-03-29T09:24:41.851Z,43.76
2019-03-29T09:27:13.133Z,43.27
2019-03-29T09:29:42.904Z,42.51
2019-03-29T09:32:12.698Z,41.79
2019-03-29T09:34:43.719Z,41.54
2019-03-29T09:37:13.482Z,38.61
2019-03-29T09:39:43.244Z,37.41
2019-03-29T09:42:12.937Z,36.34
2019-03-29T09:44:45.168Z,33.85
2019-03-29T09:47:14.780Z,34.41
2019-03-29T09:49:45.737Z,31.87
2019-03-29T09:52:15.425Z,30.15
2019-03-29T09:54:45.076Z,31.93
2019-03-29T09:57:15.743Z,33.18
2019-03-29T09:59:45.867Z,32.46
2019-03-29T10:02:15.672Z,30.64
2019-03-29T10:04:45.543Z,29.77
2019-03-29T10:07:15.219Z,26.54
2019-03-29T10:09:44.855Z,24.81
2019-03-29T10:12:14.689Z,29.85
2019-03-29T10:14:44.528Z,30.95
2019-03-29T10:17:14.159Z,31.49
2019-03-29T10:19:43.913Z,31.58
2019-03-29T10:22:13.509Z,30.62
2019-03-29T10:24:43.208Z,27.36
2019-03-29T10:27:12.906Z,25.09
2019-03-29T10:29:42.469Z,25.24
2019-03-29T10:32:12.321Z,26.22
2019-03-29T10:34:42.778Z,26.85
2019-03-29T10:37:12.544Z,25.18
2019-03-29T10:39:42.190Z,24.01
2019-03-29T10:42:12.074Z,24.73
2019-03-29T10:44:41.779Z,21.59
2019-03-29T10:47:11.444Z,22.32
2019-03-29T10:49:44.546Z,24.20
2019-03-29T10:52:14.581Z,23.14
2019-03-29T10:54:44.272Z,23.40
2019-03-29T10:57:15.834Z,23.37
2019-03-29T10:59:45.435Z,24.00
2019-03-29T11:02:15.144Z,22.94
2019-03-29T11:04:44.844Z,23.63
2019-03-29T11:07:14.512Z,22.14
2019-03-29T11:09:44.219Z,20.82
2019-03-29T11:12:14.941Z,19.24
2019-03-29T11:14:44.565Z,17.01
2019-03-29T11:17:14.302Z,16.80
2019-03-29T11:19:43.865Z,17.71
2019-03-29T11:22:13.501Z,21.98
2019-03-29T11:24:43.103Z,21.76
2019-03-29T11:27:12.960Z,22.04
2019-03-29T11:29:42.650Z,21.92
2019-03-29T11:32:12.411Z,20.59
2019-03-29T11:34:42.530Z,20.55
2019-03-29T11:37:12.123Z,20.66
2019-03-29T11:39:41.659Z,18.23
2019-03-29T11:42:11.265Z,17.53
2019-03-29T11:44:40.782Z,17.04
2019-03-29T11:47:10.379Z,16.94
2019-03-29T11:49:41.615Z,18.80
2019-03-29T11:52:13.471Z,21.84
2019-03-29T11:54:43.029Z,20.97
2019-03-29T11:57:12.878Z,19.42
2019-03-29T11:59:42.573Z,19.21
2019-03-29T12:02:12.223Z,20.42
2019-03-29T12:04:41.914Z,19.25
2019-03-29T12:07:11.983Z,18.95
2019-03-29T12:09:41.607Z,19.19
2019-03-29T12:12:11.559Z,18.21
2019-03-29T12:14:41.280Z,16.82
2019-03-29T12:17:10.997Z,15.82
2019-03-29T12:19:43.779Z,15.44
2019-03-29T12:22:13.379Z,16.44
2019-03-29T12:24:43.018Z,16.86
2019-03-29T12:27:12.656Z,15.92
2019-03-29T12:29:42.559Z,17.54
2019-03-29T12:32:12.809Z,18.34
2019-03-29T12:34:42.814Z,18.29
2019-03-29T12:37:13.979Z,17.73
2019-03-29T12:39:43.606Z,17.26
2019-03-29T12:42:13.470Z,16.54
2019-03-29T12:44:43.305Z,17.12
2019-03-29T12:47:13.037Z,16.83
2019-03-29T12:49:42.880Z,16.17
2019-03-29T12:52:14.554Z,19.32
2019-03-29T12:54:44.397Z,19.39
2019-03-29T12:57:14.527Z,18.51
2019-03-29T12:59:44.615Z,17.61
2019-03-29T13:02:14.449Z,17.54
2019-03-29T13:04:47.098Z,16.24
2019-03-29T13:07:16.258Z,16.02
2019-03-29T13:09:46.231Z,15.20
2019-03-29T13:12:16.346Z,17.00
2019-03-29T13:14:46.416Z,18.26
2019-03-29T13:17:16.826Z,17.12
2019-03-29T13:19:47.221Z,17.19
2019-03-29T13:22:16.807Z,16.85
2019-03-29T13:24:46.436Z,17.17
2019-03-29T13:27:16.124Z,18.10
2019-03-29T13:29:45.890Z,18.97
2019-03-29T13:32:15.631Z,18.43
2019-03-29T13:34:45.196Z,17.61
2019-03-29T13:37:14.742Z,17.39
2019-03-29T13:39:44.379Z,16.45
2019-03-29T13:42:14.239Z,16.81
2019-03-29T13:44:43.836Z,17.18
2019-03-29T13:47:13.617Z,17.58
2019-03-29T13:49:43.225Z,19.04
2019-03-29T13:52:12.820Z,19.31
2019-03-29T13:54:42.541Z,20.02
2019-03-29T13:57:12.758Z,20.17
2019-03-29T13:59:42.533Z,18.43
2019-03-29T14:02:12.154Z,18.12
2019-03-29T14:04:41.985Z,17.71
2019-03-29T14:07:11.517Z,18.21
2019-03-29T14:09:41.197Z,17.88
2019-03-29T14:12:10.865Z,17.75
2019-03-29T14:14:40.470Z,17.52
2019-03-29T14:17:10.216Z,17.53
2019-03-29T14:19:39.994Z,17.51
2019-03-29T14:22:09.625Z,18.51
2019-03-29T14:24:39.227Z,18.08
2019-03-29T14:27:09.822Z,18.01
2019-03-29T14:29:39.468Z,18.00
2019-03-29T14:32:09.289Z,17.64
2019-03-29T14:34:39.006Z,17.96
2019-03-29T14:37:08.526Z,18.30
2019-03-29T14:39:38.172Z,19.10
2019-03-29T14:42:08.008Z,19.34
2019-03-29T14:44:51.466Z,19.25
2019-03-29T14:47:09.176Z,19.19
2019-03-29T14:49:38.914Z,19.11
2019-03-29T14:52:08.430Z,19.89
2019-03-29T14:54:38.142Z,19.92
2019-03-29T14:57:07.663Z,20.09
2019-03-29T14:59:37.198Z,20.58
2019-03-29T15:02:06.887Z,20.63
2019-03-29T15:04:36.693Z,21.55
2019-03-29T15:07:06.479Z,22.92
2019-03-29T15:09:36.809Z,22.93
2019-03-29T15:12:07.234Z,22.77
2019-03-29T15:14:37.206Z,23.37
2019-03-29T15:17:06.904Z,23.43
2019-03-29T15:19:36.532Z,23.76
2019-03-29T15:22:06.283Z,25.00
2019-03-29T15:24:35.895Z,25.43
2019-03-29T15:27:05.572Z,26.06
2019-03-29T15:29:35.121Z,26.34
2019-03-29T15:32:04.726Z,27.33
2019-03-29T15:34:35.714Z,27.97
2019-03-29T15:37:05.313Z,28.60
2019-03-29T15:39:34.988Z,28.44
2019-03-29T15:42:04.797Z,28.75
2019-03-29T15:44:34.404Z,29.81
2019-03-29T15:47:04.356Z,30.19
2019-03-29T15:49:34.213Z,31.12
2019-03-29T15:52:04.167Z,31.79
2019-03-29T15:54:34.223Z,32.25
2019-03-29T15:57:04.287Z,32.93
2019-03-29T15:59:34.641Z,33.20
2019-03-29T16:02:04.251Z,33.54
2019-03-29T16:04:33.892Z,34.60
2019-03-29T16:07:03.689Z,34.61
2019-03-29T16:09:33.379Z,34.87
2019-03-29T16:12:03.010Z,35.19
2019-03-29T16:14:35.704Z,35.42
2019-03-29T16:17:05.353Z,35.91
2019-03-29T16:19:35.218Z,36.09
2019-03-29T16:22:06.251Z,36.39
2019-03-29T16:24:37.363Z,36.38
2019-03-29T16:27:06.971Z,36.43
2019-03-29T16:29:36.675Z,36.49
2019-03-29T16:32:06.434Z,36.67
2019-03-29T16:34:36.104Z,36.42
2019-03-29T16:37:05.726Z,36.77
2019-03-29T16:39:35.767Z,37.07
2019-03-29T16:42:05.438Z,37.40
2019-03-29T16:44:35.607Z,37.59
2019-03-29T16:47:05.243Z,37.88
2019-03-29T16:49:34.858Z,38.14
2019-03-29T16:52:04.518Z,38.45
2019-03-29T16:54:34.286Z,38.72
2019-03-29T16:57:03.896Z,38.98
2019-03-29T16:59:33.546Z,39.43
2019-03-29T17:02:03.458Z,39.55
2019-03-29T17:04:33.200Z,39.06
2019-03-29T17:07:02.877Z,39.53
2019-03-29T17:09:32.624Z,39.75
2019-03-29T17:12:02.377Z,39.74
2019-03-29T17:14:31.984Z,40.03
2019-03-29T17:17:01.653Z,40.22
2019-03-29T17:19:31.251Z,40.44
2019-03-29T17:22:00.926Z,41.16
2019-03-29T17:24:31.023Z,40.99
2019-03-29T17:27:00.549Z,41.07
2019-03-29T17:29:30.086Z,41.19
2019-03-29T17:31:59.718Z,41.18
2019-03-29T17:34:29.342Z,41.56
2019-03-29T17:36:58.942Z,41.91
2019-03-29T17:39:28.811Z,41.91
2019-03-29T17:41:58.418Z,42.01
2019-03-29T17:44:28.149Z,42.84
2019-03-29T17:46:58.141Z,43.33
2019-03-29T17:49:28.074Z,43.07
2019-03-29T17:51:58.053Z,42.87
2019-03-29T17:54:28.173Z,43.14
2019-03-29T17:56:57.709Z,43.52
2019-03-29T17:59:27.471Z,43.86
2019-03-29T18:02:08.737Z,44.29
2019-03-29T18:04:28.627Z,44.38
2019-03-29T18:06:58.270Z,44.19
2019-03-29T18:09:28.943Z,44.38
2019-03-29T18:11:58.706Z,44.53
2019-03-29T18:14:28.575Z,45.35
2019-03-29T18:16:58.350Z,45.53
2019-03-29T18:19:28.659Z,45.63
2019-03-29T18:21:58.433Z,45.69
2019-03-29T18:24:28.103Z,46.02
2019-03-29T18:26:58.067Z,46.02
2019-03-29T18:29:27.695Z,46.33
2019-03-29T18:31:58.210Z,46.37
2019-03-29T18:34:30.171Z,46.67
2019-03-29T18:37:01.210Z,47.06
2019-03-29T18:39:31.680Z,47.10
2019-03-29T18:42:01.735Z,47.73
2019-03-29T18:44:31.963Z,47.78
2019-03-29T18:47:03.969Z,48.17
2019-03-29T18:49:33.701Z,47.59
2019-03-29T18:52:03.302Z,48.20
2019-03-29T18:54:32.930Z,47.94
2019-03-29T18:57:02.607Z,48.60
2019-03-29T18:59:32.201Z,48.55
2019-03-29T19:02:01.922Z,48.82
2019-03-29T19:04:31.618Z,49.07
2019-03-29T19:07:01.217Z,49.71
2019-03-29T19:09:34.202Z,49.94
2019-03-29T19:12:03.855Z,49.52
2019-03-29T19:14:33.581Z,50.28
2019-03-29T19:17:04.828Z,51.13
2019-03-29T19:19:34.611Z,51.41
2019-03-29T19:22:04.377Z,51.39
2019-03-29T19:24:35.151Z,52.51
2019-03-29T19:27:04.908Z,52.57
2019-03-29T19:29:34.754Z,52.91
2019-03-29T19:32:05.414Z,53.46
2019-03-29T19:34:35.111Z,53.60
2019-03-29T19:37:04.939Z,53.89
2019-03-29T19:39:34.552Z,54.43
2019-03-29T19:42:04.383Z,55.01
2019-03-29T19:44:34.098Z,55.26
2019-03-29T19:47:13.229Z,55.80
2019-03-29T19:49:37.071Z,56.17
2019-03-29T19:52:07.126Z,56.67
2019-03-29T19:54:36.886Z,57.91
2019-03-29T19:57:07.754Z,58.28
2019-03-29T19:59:37.522Z,58.29
2019-03-29T20:02:07.391Z,58.60
2019-03-29T20:04:37.355Z,58.72
2019-03-29T20:07:07.057Z,59.07
2019-03-29T20:09:36.970Z,59.18
2019-03-29T20:12:09.715Z,59.56
2019-03-29T20:14:39.888Z,59.65
2019-03-29T20:17:10.196Z,59.92
2019-03-29T20:19:39.893Z,60.05
2019-03-29T20:22:09.728Z,60.11
2019-03-29T20:24:39.480Z,60.56
2019-03-29T20:27:09.146Z,60.88
2019-03-29T20:29:38.804Z,60.84
2019-03-29T20:32:10.185Z,61.04
2019-03-29T20:34:40.024Z,60.95
2019-03-29T20:37:10.291Z,61.21
2019-03-29T20:39:40.110Z,61.34
2019-03-29T20:42:09.706Z,61.66
2019-03-29T20:44:39.857Z,61.67
2019-03-29T20:47:12.776Z,62.27
2019-03-29T20:49:42.399Z,62.49
2019-03-29T20:52:12.086Z,62.66
2019-03-29T20:54:42.106Z,63.27
2019-03-29T20:57:11.679Z,63.49
2019-03-29T20:59:41.532Z,63.94
2019-03-29T21:02:11.279Z,64.00
2019-03-29T21:04:41.145Z,63.73
2019-03-29T21:07:11.351Z,64.63
2019-03-29T21:09:41.435Z,65.10
2019-03-29T21:12:11.013Z,66.50
2019-03-29T21:14:41.327Z,66.73
2019-03-29T21:17:11.348Z,66.63
2019-03-29T21:19:41.694Z,67.10
2019-03-29T21:22:11.533Z,67.40
2019-03-29T21:24:41.326Z,67.80
2019-03-29T21:27:11.302Z,67.64
2019-03-29T21:29:41.562Z,67.98
2019-03-29T21:32:14.520Z,67.86
2019-03-29T21:34:44.327Z,68.70
2019-03-29T21:37:13.930Z,68.56
2019-03-29T21:39:43.840Z,68.73
2019-03-29T21:42:13.755Z,68.84
2019-03-29T21:44:45.208Z,69.17
2019-03-29T21:47:15.943Z,68.49
2019-03-29T21:49:45.644Z,68.38
2019-03-29T21:52:15.377Z,68.55
2019-03-29T21:54:49.530Z,69.65
2019-03-29T21:57:19.365Z,69.50
2019-03-29T21:59:49.120Z,69.21
2019-03-29T22:02:21.487Z,70.27
2019-03-29T22:04:50.705Z,70.09
2019-03-29T22:07:20.299Z,70.36
2019-03-29T22:09:49.917Z,70.69
2019-03-29T22:12:19.596Z,70.51
2019-03-29T22:14:49.215Z,70.78
2019-03-29T22:17:19.074Z,71.01
2019-03-29T22:19:48.752Z,70.45
2019-03-29T22:22:18.456Z,70.52
2019-03-29T22:24:51.315Z,71.70
2019-03-29T22:27:21.059Z,70.95
2019-03-29T22:29:50.731Z,71.22
2019-03-29T22:32:20.695Z,71.37
2019-03-29T22:34:54.919Z,71.14
2019-03-29T22:37:24.536Z,71.04
2019-03-29T22:39:54.486Z,71.13
2019-03-29T22:42:24.537Z,71.15
2019-03-29T22:44:54.200Z,71.43
2019-03-29T22:47:23.989Z,71.02
2019-03-29T22:49:53.865Z,71.79
2019-03-29T22:52:23.618Z,72.50
2019-03-29T22:54:53.536Z,73.23
2019-03-29T22:57:26.892Z,73.66
2019-03-29T22:59:58.319Z,74.14
2019-03-29T23:02:28.107Z,74.81
2019-03-29T23:04:57.712Z,75.07
2019-03-29T23:07:27.389Z,75.38
2019-03-29T23:09:57.048Z,74.71
2019-03-29T23:12:26.758Z,74.23
2019-03-29T23:14:56.413Z,74.99
2019-03-29T23:17:26.172Z,74.28
2019-03-29T23:19:55.927Z,74.79
2019-03-29T23:22:25.490Z,75.20
2019-03-29T23:24:55.181Z,74.92
2019-03-29T23:27:24.798Z,75.29
2019-03-29T23:29:54.346Z,75.71
2019-03-29T23:32:24.048Z,75.02
2019-03-29T23:34:53.778Z,74.09
2019-03-29T23:37:23.520Z,74.80
2019-03-29T23:39:53.158Z,74.87
2019-03-29T23:42:22.868Z,74.06
2019-03-29T23:44:52.530Z,74.31
2019-03-29T23:47:22.504Z,74.36
2019-03-29T23:49:52.111Z,73.94
2019-03-29T23:52:21.749Z,74.03
2019-03-29T23:54:51.334Z,74.50
2019-03-29T23:57:25.520Z,74.12
2019-03-29T23:59:55.080Z,73.72
